sensor_id;sensor_type;location;lat;lon;timestamp;pressure;altitude;pressure_sealevel;temperature;humidity
11523;BME280;70090;43.208;27.904;2024-01-11T00:01:24;102213.78;;;-2.82;100.00
11523;BME280;70090;43.208;27.904;2024-01-11T00:03:51;102216.22;;;-2.81;100.00
11523;BME280;70090;43.208;27.904;2024-01-11T00:06:18;102212.94;;;-2.83;100.00
11523;BME280;70090;43.208;27.904;2024-01-11T00:08:45;102215.91;;;-2.84;100.00
11523;BME280;70090;43.208;27.904;2024-01-11T00:11:12;102212.38;;;-2.85;100.00
11523;BME280;70090;43.208;27.904;2024-01-11T00:13:39;102217.84;;;-2.80;100.00
11523;BME280;70090;43.208;27.904;2024-01-11T00:16:06;102204.38;;;-2.80;100.00
11523;BME280;70090;43.208;27.904;2024-01-11T00:18:34;102203.31;;;-2.79;100.00
11523;BME280;70090;43.208;27.904;2024-01-11T00:21:01;102212.47;;;-2.80;100.00
11523;BME280;70090;43.208;27.904;2024-01-11T00:23:28;102211.63;;;-2.80;100.00
11523;BME280;70090;43.208;27.904;2024-01-11T00:25:55;102206.44;;;-2.87;100.00
11523;BME280;70090;43.208;27.904;2024-01-11T00:28:22;102210.25;;;-2.83;100.00
11523;BME280;70090;43.208;27.904;2024-01-11T00:30:49;102202.75;;;-2.81;100.00
11523;BME280;70090;43.208;27.904;2024-01-11T00:33:16;102205.44;;;-2.81;100.00
11523;BME280;70090;43.208;27.904;2024-01-11T00:35:44;102201.13;;;-2.82;99.89
11523;BME280;70090;43.208;27.904;2024-01-11T00:38:12;102187.72;;;-2.77;99.10
11523;BME280;70090;43.208;27.904;2024-01-11T00:40:39;102192.53;;;-2.79;99.09
11523;BME280;70090;43.208;27.904;2024-01-11T00:43:06;102190.91;;;-2.80;99.29
11523;BME280;70090;43.208;27.904;2024-01-11T00:45:33;102188.69;;;-2.83;99.05
11523;BME280;70090;43.208;27.904;2024-01-11T00:48:00;102209.13;;;-2.87;98.28
11523;BME280;70090;43.208;27.904;2024-01-11T00:50:28;102187.06;;;-2.84;98.06
11523;BME280;70090;43.208;27.904;2024-01-11T00:52:56;102201.88;;;-2.86;97.65
11523;BME280;70090;43.208;27.904;2024-01-11T00:55:23;102194.03;;;-2.88;97.38
11523;BME280;70090;43.208;27.904;2024-01-11T00:57:51;102188.63;;;-2.88;97.54
11523;BME280;70090;43.208;27.904;2024-01-11T01:00:18;102196.94;;;-2.89;97.29
11523;BME280;70090;43.208;27.904;2024-01-11T01:02:45;102180.78;;;-2.89;96.47
11523;BME280;70090;43.208;27.904;2024-01-11T01:05:12;102178.84;;;-2.94;95.85
11523;BME280;70090;43.208;27.904;2024-01-11T01:07:40;102190.44;;;-2.93;95.80
11523;BME280;70090;43.208;27.904;2024-01-11T01:10:09;102175.06;;;-2.93;95.11
11523;BME280;70090;43.208;27.904;2024-01-11T01:12:36;102173.16;;;-2.97;95.28
11523;BME280;70090;43.208;27.904;2024-01-11T01:15:03;102170.44;;;-2.97;95.10
11523;BME280;70090;43.208;27.904;2024-01-11T01:17:30;102154.03;;;-2.96;93.99
11523;BME280;70090;43.208;27.904;2024-01-11T01:19:57;102149.78;;;-2.92;93.15
11523;BME280;70090;43.208;27.904;2024-01-11T01:22:24;102168.72;;;-2.87;92.77
11523;BME280;70090;43.208;27.904;2024-01-11T01:24:51;102149.34;;;-2.84;91.93
11523;BME280;70090;43.208;27.904;2024-01-11T01:27:20;102152.03;;;-2.84;92.50
11523;BME280;70090;43.208;27.904;2024-01-11T01:29:47;102148.28;;;-2.83;92.55
11523;BME280;70090;43.208;27.904;2024-01-11T01:32:14;102142.09;;;-2.83;92.00
11523;BME280;70090;43.208;27.904;2024-01-11T01:34:41;102134.25;;;-2.85;91.65
11523;BME280;70090;43.208;27.904;2024-01-11T01:37:08;102130.75;;;-2.85;91.52
11523;BME280;70090;43.208;27.904;2024-01-11T01:39:37;102125.09;;;-2.84;91.92
11523;BME280;70090;43.208;27.904;2024-01-11T01:42:04;102116.28;;;-2.79;90.56
11523;BME280;70090;43.208;27.904;2024-01-11T01:44:33;102123.56;;;-2.80;88.82
11523;BME280;70090;43.208;27.904;2024-01-11T01:47:00;102112.78;;;-2.80;89.16
11523;BME280;70090;43.208;27.904;2024-01-11T01:49:29;102115.81;;;-2.76;88.85
11523;BME280;70090;43.208;27.904;2024-01-11T01:51:56;102125.53;;;-2.75;88.60
11523;BME280;70090;43.208;27.904;2024-01-11T01:54:24;102111.88;;;-2.69;87.82
11523;BME280;70090;43.208;27.904;2024-01-11T01:56:52;102117.31;;;-2.64;88.31
11523;BME280;70090;43.208;27.904;2024-01-11T01:59:20;102108.72;;;-2.61;88.56
11523;BME280;70090;43.208;27.904;2024-01-11T02:01:49;102106.59;;;-2.59;89.24
11523;BME280;70090;43.208;27.904;2024-01-11T02:04:16;102099.59;;;-2.60;89.44
11523;BME280;70090;43.208;27.904;2024-01-11T02:06:44;102118.19;;;-2.58;89.59
11523;BME280;70090;43.208;27.904;2024-01-11T02:09:13;102107.09;;;-2.62;88.65
11523;BME280;70090;43.208;27.904;2024-01-11T02:11:41;102103.09;;;-2.59;88.58
11523;BME280;70090;43.208;27.904;2024-01-11T02:14:09;102110.38;;;-2.60;88.60
11523;BME280;70090;43.208;27.904;2024-01-11T02:16:37;102121.16;;;-2.60;88.10
11523;BME280;70090;43.208;27.904;2024-01-11T02:19:06;102105.78;;;-2.59;87.14
11523;BME280;70090;43.208;27.904;2024-01-11T02:21:34;102094.13;;;-2.65;86.98
11523;BME280;70090;43.208;27.904;2024-01-11T02:24:06;102098.72;;;-2.65;87.36
11523;BME280;70090;43.208;27.904;2024-01-11T02:26:34;102099.69;;;-2.71;87.09
11523;BME280;70090;43.208;27.904;2024-01-11T02:29:01;102094.50;;;-2.78;87.10
11523;BME280;70090;43.208;27.904;2024-01-11T02:31:28;102100.38;;;-2.81;86.94
11523;BME280;70090;43.208;27.904;2024-01-11T02:33:55;102098.16;;;-2.84;86.92
11523;BME280;70090;43.208;27.904;2024-01-11T02:36:23;102090.59;;;-2.87;87.32
11523;BME280;70090;43.208;27.904;2024-01-11T02:38:52;102089.53;;;-2.86;87.15
11523;BME280;70090;43.208;27.904;2024-01-11T02:41:21;102086.28;;;-2.88;86.50
11523;BME280;70090;43.208;27.904;2024-01-11T02:43:49;102097.06;;;-2.88;87.56
11523;BME280;70090;43.208;27.904;2024-01-11T02:46:17;102087.34;;;-2.89;86.89
11523;BME280;70090;43.208;27.904;2024-01-11T02:48:44;102089.53;;;-2.86;86.93
11523;BME280;70090;43.208;27.904;2024-01-11T02:51:11;102100.63;;;-2.82;86.35
11523;BME280;70090;43.208;27.904;2024-01-11T02:53:38;102100.88;;;-2.84;86.14
11523;BME280;70090;43.208;27.904;2024-01-11T02:56:05;102093.38;;;-2.82;86.90
11523;BME280;70090;43.208;27.904;2024-01-11T02:58:34;102091.16;;;-2.85;86.59
11523;BME280;70090;43.208;27.904;2024-01-11T03:01:01;102086.31;;;-2.83;87.55
11523;BME280;70090;43.208;27.904;2024-01-11T03:03:28;102095.81;;;-2.80;87.89
11523;BME280;70090;43.208;27.904;2024-01-11T03:05:55;102074.75;;;-2.83;88.23
11523;BME280;70090;43.208;27.904;2024-01-11T03:08:21;102094.41;;;-2.83;88.81
11523;BME280;70090;43.208;27.904;2024-01-11T03:10:49;102086.31;;;-2.83;88.30
11523;BME280;70090;43.208;27.904;2024-01-11T03:13:16;102066.91;;;-2.85;87.90
11523;BME280;70090;43.208;27.904;2024-01-11T03:15:44;102083.03;;;-2.90;87.77
11523;BME280;70090;43.208;27.904;2024-01-11T03:18:12;102062.13;;;-2.99;87.67
11523;BME280;70090;43.208;27.904;2024-01-11T03:20:38;102068.59;;;-3.00;88.04
11523;BME280;70090;43.208;27.904;2024-01-11T03:23:05;102068.84;;;-3.02;87.89
11523;BME280;70090;43.208;27.904;2024-01-11T03:25:32;102066.72;;;-3.00;87.87
11523;BME280;70090;43.208;27.904;2024-01-11T03:27:59;102068.03;;;-3.02;87.89
11523;BME280;70090;43.208;27.904;2024-01-11T03:30:26;102060.50;;;-3.00;88.16
11523;BME280;70090;43.208;27.904;2024-01-11T03:32:54;102063.94;;;-3.05;88.23
11523;BME280;70090;43.208;27.904;2024-01-11T03:35:21;102071.47;;;-3.07;88.39
11523;BME280;70090;43.208;27.904;2024-01-11T03:37:48;102060.69;;;-3.07;88.65
11523;BME280;70090;43.208;27.904;2024-01-11T03:40:15;102052.88;;;-3.08;89.19
11523;BME280;70090;43.208;27.904;2024-01-11T03:42:43;102052.06;;;-3.09;88.94
11523;BME280;70090;43.208;27.904;2024-01-11T03:45:10;102047.97;;;-3.11;89.03
11523;BME280;70090;43.208;27.904;2024-01-11T03:47:37;102049.34;;;-3.09;88.76
11523;BME280;70090;43.208;27.904;2024-01-11T03:50:06;102041.78;;;-3.12;88.82
11523;BME280;70090;43.208;27.904;2024-01-11T03:52:33;102039.72;;;-3.05;89.35
11523;BME280;70090;43.208;27.904;2024-01-11T03:55:00;102041.34;;;-3.04;89.43
11523;BME280;70090;43.208;27.904;2024-01-11T03:57:27;102029.75;;;-3.04;89.42
11523;BME280;70090;43.208;27.904;2024-01-11T03:59:54;102036.78;;;-3.03;89.69
11523;BME280;70090;43.208;27.904;2024-01-11T04:02:21;102031.56;;;-3.10;88.91
11523;BME280;70090;43.208;27.904;2024-01-11T04:04:48;102028.88;;;-3.10;89.15
11523;BME280;70090;43.208;27.904;2024-01-11T04:07:17;102029.69;;;-3.09;88.78
11523;BME280;70090;43.208;27.904;2024-01-11T04:09:44;102021.59;;;-3.09;89.21
11523;BME280;70090;43.208;27.904;2024-01-11T04:12:11;102021.88;;;-3.11;88.18
11523;BME280;70090;43.208;27.904;2024-01-11T04:14:38;102015.97;;;-3.08;87.90
11523;BME280;70090;43.208;27.904;2024-01-11T04:17:06;102013.72;;;-3.16;88.34
11523;BME280;70090;43.208;27.904;2024-01-11T04:19:33;102004.09;;;-3.12;89.22
11523;BME280;70090;43.208;27.904;2024-01-11T04:22:00;102020.25;;;-3.12;89.08
11523;BME280;70090;43.208;27.904;2024-01-11T04:24:28;102011.59;;;-3.14;88.78
11523;BME280;70090;43.208;27.904;2024-01-11T04:26:55;102019.09;;;-3.16;88.83
11523;BME280;70090;43.208;27.904;2024-01-11T04:29:22;102008.84;;;-3.19;89.28
11523;BME280;70090;43.208;27.904;2024-01-11T04:31:49;102002.31;;;-3.23;89.47
11523;BME280;70090;43.208;27.904;2024-01-11T04:34:16;102012.78;;;-3.26;89.59
11523;BME280;70090;43.208;27.904;2024-01-11T04:36:44;102008.78;;;-3.24;89.22
11523;BME280;70090;43.208;27.904;2024-01-11T04:39:11;102011.75;;;-3.20;88.75
11523;BME280;70090;43.208;27.904;2024-01-11T04:41:40;102026.56;;;-3.23;88.63
11523;BME280;70090;43.208;27.904;2024-01-11T04:44:07;102023.88;;;-3.23;89.09
11523;BME280;70090;43.208;27.904;2024-01-11T04:46:34;102023.59;;;-3.21;88.79
11523;BME280;70090;43.208;27.904;2024-01-11T04:49:01;102019.59;;;-3.19;88.32
11523;BME280;70090;43.208;27.904;2024-01-11T04:51:28;102019.03;;;-3.21;88.39
11523;BME280;70090;43.208;27.904;2024-01-11T04:53:55;102003.44;;;-3.19;88.41
11523;BME280;70090;43.208;27.904;2024-01-11T04:56:22;102014.22;;;-3.19;88.43
11523;BME280;70090;43.208;27.904;2024-01-11T04:58:51;102010.88;;;-3.26;87.98
11523;BME280;70090;43.208;27.904;2024-01-11T05:01:18;102007.72;;;-3.23;88.30
11523;BME280;70090;43.208;27.904;2024-01-11T05:03:46;102015.19;;;-3.25;88.70
11523;BME280;70090;43.208;27.904;2024-01-11T05:06:17;102012.44;;;-3.30;88.63
11523;BME280;70090;43.208;27.904;2024-01-11T05:08:44;102012.22;;;-3.28;88.78
11523;BME280;70090;43.208;27.904;2024-01-11T05:11:15;102010.31;;;-3.28;89.38
11523;BME280;70090;43.208;27.904;2024-01-11T05:13:43;102014.63;;;-3.27;89.70
11523;BME280;70090;43.208;27.904;2024-01-11T05:16:21;102000.56;;;-3.34;89.89
11523;BME280;70090;43.208;27.904;2024-01-11T05:18:49;102002.50;;;-3.29;90.07
11523;BME280;70090;43.208;27.904;2024-01-11T05:21:16;102012.78;;;-3.26;90.19
11523;BME280;70090;43.208;27.904;2024-01-11T05:23:44;101999.03;;;-3.25;90.41
11523;BME280;70090;43.208;27.904;2024-01-11T05:26:12;101994.72;;;-3.26;90.51
11523;BME280;70090;43.208;27.904;2024-01-11T05:28:39;101996.13;;;-3.23;90.76
11523;BME280;70090;43.208;27.904;2024-01-11T05:31:08;101989.44;;;-3.21;90.92
11523;BME280;70090;43.208;27.904;2024-01-11T05:33:37;101992.69;;;-3.19;91.41
11523;BME280;70090;43.208;27.904;2024-01-11T05:36:04;101983.84;;;-3.14;91.44
11523;BME280;70090;43.208;27.904;2024-01-11T05:38:31;101983.03;;;-3.15;91.67
11523;BME280;70090;43.208;27.904;2024-01-11T05:40:58;101982.00;;;-3.14;91.18
11523;BME280;70090;43.208;27.904;2024-01-11T05:43:26;101981.41;;;-3.16;91.17
11523;BME280;70090;43.208;27.904;2024-01-11T05:45:53;101977.63;;;-3.15;91.05
11523;BME280;70090;43.208;27.904;2024-01-11T05:48:20;101968.22;;;-3.17;90.91
11523;BME280;70090;43.208;27.904;2024-01-11T05:50:48;101956.88;;;-3.19;91.20
11523;BME280;70090;43.208;27.904;2024-01-11T05:53:15;101960.69;;;-3.15;91.00
11523;BME280;70090;43.208;27.904;2024-01-11T05:55:46;101966.41;;;-3.12;90.45
11523;BME280;70090;43.208;27.904;2024-01-11T05:58:13;101955.13;;;-3.09;90.33
11523;BME280;70090;43.208;27.904;2024-01-11T06:00:40;101954.59;;;-3.06;89.55
11523;BME280;70090;43.208;27.904;2024-01-11T06:03:07;101968.63;;;-3.04;89.63
11523;BME280;70090;43.208;27.904;2024-01-11T06:05:34;101957.38;;;-3.01;89.17
11523;BME280;70090;43.208;27.904;2024-01-11T06:08:03;101951.47;;;-2.98;89.10
11523;BME280;70090;43.208;27.904;2024-01-11T06:10:31;101952.34;;;-2.92;88.57
11523;BME280;70090;43.208;27.904;2024-01-11T06:12:58;101946.44;;;-2.89;88.82
11523;BME280;70090;43.208;27.904;2024-01-11T06:15:25;101949.47;;;-2.86;88.24
11523;BME280;70090;43.208;27.904;2024-01-11T06:17:52;101953.22;;;-2.87;88.47
11523;BME280;70090;43.208;27.904;2024-01-11T06:20:19;101944.03;;;-2.91;88.75
11523;BME280;70090;43.208;27.904;2024-01-11T06:22:46;101948.06;;;-2.88;89.14
11523;BME280;70090;43.208;27.904;2024-01-11T06:25:14;101953.53;;;-2.83;88.92
11523;BME280;70090;43.208;27.904;2024-01-11T06:27:42;101956.00;;;-2.82;89.17
11523;BME280;70090;43.208;27.904;2024-01-11T06:30:10;101952.22;;;-2.81;89.71
11523;BME280;70090;43.208;27.904;2024-01-11T06:32:37;101956.00;;;-2.82;90.38
11523;BME280;70090;43.208;27.904;2024-01-11T06:35:05;101958.09;;;-2.84;90.67
11523;BME280;70090;43.208;27.904;2024-01-11T06:37:32;101950.41;;;-2.75;91.09
11523;BME280;70090;43.208;27.904;2024-01-11T06:39:59;101955.28;;;-2.72;90.57
11523;BME280;70090;43.208;27.904;2024-01-11T06:42:28;101954.72;;;-2.74;90.88
11523;BME280;70090;43.208;27.904;2024-01-11T06:44:55;101957.44;;;-2.69;90.01
11523;BME280;70090;43.208;27.904;2024-01-11T06:47:22;101953.97;;;-2.70;89.72
11523;BME280;70090;43.208;27.904;2024-01-11T06:49:49;101955.03;;;-2.71;88.77
11523;BME280;70090;43.208;27.904;2024-01-11T06:52:16;101951.00;;;-2.68;89.05
11523;BME280;70090;43.208;27.904;2024-01-11T06:54:43;101946.44;;;-2.68;88.80
11523;BME280;70090;43.208;27.904;2024-01-11T06:57:10;101954.56;;;-2.63;87.95
11523;BME280;70090;43.208;27.904;2024-01-11T06:59:39;101944.09;;;-2.59;88.34
11523;BME280;70090;43.208;27.904;2024-01-11T07:02:06;101945.50;;;-2.52;88.35
11523;BME280;70090;43.208;27.904;2024-01-11T07:04:33;101942.56;;;-2.50;88.43
11523;BME280;70090;43.208;27.904;2024-01-11T07:07:00;101938.56;;;-2.48;88.48
11523;BME280;70090;43.208;27.904;2024-01-11T07:09:27;101950.13;;;-2.47;87.93
11523;BME280;70090;43.208;27.904;2024-01-11T07:11:54;101952.81;;;-2.47;88.18
11523;BME280;70090;43.208;27.904;2024-01-11T07:14:21;101946.94;;;-2.44;88.03
11523;BME280;70090;43.208;27.904;2024-01-11T07:16:50;101942.16;;;-2.38;88.43
11523;BME280;70090;43.208;27.904;2024-01-11T07:19:17;101946.84;;;-2.28;87.34
11523;BME280;70090;43.208;27.904;2024-01-11T07:21:44;101939.31;;;-2.21;87.62
11523;BME280;70090;43.208;27.904;2024-01-11T07:24:11;101941.56;;;-2.13;86.56
11523;BME280;70090;43.208;27.904;2024-01-11T07:26:38;101934.31;;;-2.08;86.43
11523;BME280;70090;43.208;27.904;2024-01-11T07:29:05;101941.66;;;-1.98;86.51
11523;BME280;70090;43.208;27.904;2024-01-11T07:31:32;101930.94;;;-1.93;85.92
11523;BME280;70090;43.208;27.904;2024-01-11T07:34:01;101934.78;;;-1.84;86.42
11523;BME280;70090;43.208;27.904;2024-01-11T07:36:28;101932.16;;;-1.74;85.89
11523;BME280;70090;43.208;27.904;2024-01-11T07:38:56;101927.06;;;-1.66;85.64
11523;BME280;70090;43.208;27.904;2024-01-11T07:41:23;101938.16;;;-1.62;84.43
11523;BME280;70090;43.208;27.904;2024-01-11T07:43:50;101932.28;;;-1.54;84.40
11523;BME280;70090;43.208;27.904;2024-01-11T07:46:17;101919.88;;;-1.50;82.90
11523;BME280;70090;43.208;27.904;2024-01-11T07:48:44;101928.56;;;-1.43;82.35
11523;BME280;70090;43.208;27.904;2024-01-11T07:51:12;101923.69;;;-1.41;81.22
11523;BME280;70090;43.208;27.904;2024-01-11T07:53:39;101919.38;;;-1.37;81.74
11523;BME280;70090;43.208;27.904;2024-01-11T07:56:06;101913.50;;;-1.29;81.18
11523;BME280;70090;43.208;27.904;2024-01-11T07:58:33;101913.53;;;-1.19;80.30
11523;BME280;70090;43.208;27.904;2024-01-11T08:01:03;101916.81;;;-1.07;79.02
11523;BME280;70090;43.208;27.904;2024-01-11T08:03:30;101924.38;;;-1.09;77.94
11523;BME280;70090;43.208;27.904;2024-01-11T08:05:58;101913.03;;;-1.11;77.61
11523;BME280;70090;43.208;27.904;2024-01-11T08:08:27;101917.06;;;-1.09;77.73
11523;BME280;70090;43.208;27.904;2024-01-11T08:10:54;101909.78;;;-1.08;77.10
11523;BME280;70090;43.208;27.904;2024-01-11T08:13:21;101904.94;;;-1.06;77.68
11523;BME280;70090;43.208;27.904;2024-01-11T08:15:48;101904.72;;;-0.95;78.01
11523;BME280;70090;43.208;27.904;2024-01-11T08:18:18;101901.75;;;-0.83;77.76
11523;BME280;70090;43.208;27.904;2024-01-11T08:20:45;101911.22;;;-0.81;76.76
11523;BME280;70090;43.208;27.904;2024-01-11T08:23:12;101886.38;;;-0.78;76.43
11523;BME280;70090;43.208;27.904;2024-01-11T08:25:40;101883.13;;;-0.65;77.00
11523;BME280;70090;43.208;27.904;2024-01-11T08:28:07;101885.59;;;-0.68;76.94
11523;BME280;70090;43.208;27.904;2024-01-11T08:30:34;101885.88;;;-0.60;76.35
11523;BME280;70090;43.208;27.904;2024-01-11T08:33:02;101886.66;;;-0.59;76.65
11523;BME280;70090;43.208;27.904;2024-01-11T08:35:29;101877.75;;;-0.55;76.47
11523;BME280;70090;43.208;27.904;2024-01-11T08:37:57;101887.47;;;-0.54;77.25
11523;BME280;70090;43.208;27.904;2024-01-11T08:40:24;101876.41;;;-0.52;76.51
11523;BME280;70090;43.208;27.904;2024-01-11T08:42:53;101870.72;;;-0.46;76.25
11523;BME280;70090;43.208;27.904;2024-01-11T08:45:20;101867.22;;;-0.41;76.18
11523;BME280;70090;43.208;27.904;2024-01-11T08:47:48;101858.28;;;-0.37;76.42
11523;BME280;70090;43.208;27.904;2024-01-11T08:50:15;101857.75;;;-0.29;76.11
11523;BME280;70090;43.208;27.904;2024-01-11T08:52:43;101861.25;;;-0.18;76.65
11523;BME280;70090;43.208;27.904;2024-01-11T08:55:10;101854.78;;;-0.22;74.98
11523;BME280;70090;43.208;27.904;2024-01-11T08:57:38;101841.22;;;-0.17;76.56
11523;BME280;70090;43.208;27.904;2024-01-11T09:00:07;101825.50;;;-0.06;76.45
11523;BME280;70090;43.208;27.904;2024-01-11T09:02:34;101849.56;;;0.16;74.78
11523;BME280;70090;43.208;27.904;2024-01-11T09:05:01;101824.94;;;0.12;75.20
11523;BME280;70090;43.208;27.904;2024-01-11T09:07:30;101816.22;;;0.25;73.62
11523;BME280;70090;43.208;27.904;2024-01-11T09:09:57;101806.69;;;0.48;73.63
11523;BME280;70090;43.208;27.904;2024-01-11T09:12:24;101800.91;;;0.64;71.09
11523;BME280;70090;43.208;27.904;2024-01-11T09:14:52;101804.41;;;0.70;71.65
11523;BME280;70090;43.208;27.904;2024-01-11T09:17:20;101790.53;;;0.81;71.43
11523;BME280;70090;43.208;27.904;2024-01-11T09:19:47;101782.78;;;1.03;72.27
11523;BME280;70090;43.208;27.904;2024-01-11T09:22:14;101786.31;;;1.04;72.64
11523;BME280;70090;43.208;27.904;2024-01-11T09:24:41;101775.81;;;0.92;72.48
11523;BME280;70090;43.208;27.904;2024-01-11T09:27:08;101766.59;;;0.93;70.39
11523;BME280;70090;43.208;27.904;2024-01-11T09:29:35;101769.38;;;0.83;68.63
11523;BME280;70090;43.208;27.904;2024-01-11T09:32:03;101765.63;;;0.74;70.13
11523;BME280;70090;43.208;27.904;2024-01-11T09:34:32;101780.00;;;0.75;69.88
11523;BME280;70090;43.208;27.904;2024-01-11T09:36:59;101745.13;;;0.63;71.41
11523;BME280;70090;43.208;27.904;2024-01-11T09:39:26;101753.81;;;0.55;71.78
11523;BME280;70090;43.208;27.904;2024-01-11T09:41:58;101752.00;;;0.41;71.72
11523;BME280;70090;43.208;27.904;2024-01-11T09:44:25;101742.28;;;0.35;73.54
11523;BME280;70090;43.208;27.904;2024-01-11T09:46:53;101719.31;;;0.27;75.56
11523;BME280;70090;43.208;27.904;2024-01-11T09:49:22;101719.81;;;0.34;74.29
11523;BME280;70090;43.208;27.904;2024-01-11T09:51:51;101726.53;;;0.42;74.01
11523;BME280;70090;43.208;27.904;2024-01-11T09:54:23;101720.28;;;0.51;74.92
11523;BME280;70090;43.208;27.904;2024-01-11T09:56:53;101715.19;;;0.78;74.83
11523;BME280;70090;43.208;27.904;2024-01-11T09:59:21;101709.09;;;1.01;75.43
11523;BME280;70090;43.208;27.904;2024-01-11T10:01:49;101697.59;;;1.14;73.33
11523;BME280;70090;43.208;27.904;2024-01-11T10:04:16;101680.38;;;1.29;73.86
11523;BME280;70090;43.208;27.904;2024-01-11T10:06:44;101680.78;;;1.41;73.90
11523;BME280;70090;43.208;27.904;2024-01-11T10:09:12;101681.34;;;1.66;74.69
11523;BME280;70090;43.208;27.904;2024-01-11T10:11:39;101689.94;;;1.73;72.37
11523;BME280;70090;43.208;27.904;2024-01-11T10:14:06;101669.72;;;1.84;72.14
11523;BME280;70090;43.208;27.904;2024-01-11T10:16:33;101666.94;;;1.89;71.90
11523;BME280;70090;43.208;27.904;2024-01-11T10:19:01;101655.66;;;2.01;71.64
11523;BME280;70090;43.208;27.904;2024-01-11T10:21:29;101651.78;;;2.07;71.10
11523;BME280;70090;43.208;27.904;2024-01-11T10:23:57;101657.97;;;2.12;70.70
11523;BME280;70090;43.208;27.904;2024-01-11T10:26:26;101643.78;;;2.15;69.13
11523;BME280;70090;43.208;27.904;2024-01-11T10:28:59;101660.41;;;2.14;68.87
11523;BME280;70090;43.208;27.904;2024-01-11T10:31:28;101646.81;;;2.14;68.91
11523;BME280;70090;43.208;27.904;2024-01-11T10:33:55;101635.50;;;2.25;68.53
11523;BME280;70090;43.208;27.904;2024-01-11T10:36:23;101625.38;;;2.49;68.30
11523;BME280;70090;43.208;27.904;2024-01-11T10:38:53;101616.47;;;2.62;67.84
11523;BME280;70090;43.208;27.904;2024-01-11T10:41:22;101604.84;;;2.75;66.91
11523;BME280;70090;43.208;27.904;2024-01-11T10:43:51;101596.03;;;2.83;67.65
11523;BME280;70090;43.208;27.904;2024-01-11T10:46:22;101604.00;;;2.93;67.19
11523;BME280;70090;43.208;27.904;2024-01-11T10:48:55;101594.56;;;3.04;66.17
11523;BME280;70090;43.208;27.904;2024-01-11T10:51:23;101588.00;;;3.05;65.89
11523;BME280;70090;43.208;27.904;2024-01-11T10:53:53;101585.41;;;3.13;64.95
11523;BME280;70090;43.208;27.904;2024-01-11T10:56:21;101587.66;;;3.25;65.58
11523;BME280;70090;43.208;27.904;2024-01-11T10:58:50;101554.41;;;3.41;66.28
11523;BME280;70090;43.208;27.904;2024-01-11T11:01:18;101567.38;;;3.44;65.59
11523;BME280;70090;43.208;27.904;2024-01-11T11:03:48;101556.91;;;3.51;66.13
11523;BME280;70090;43.208;27.904;2024-01-11T11:06:18;101554.47;;;3.63;65.02
11523;BME280;70090;43.208;27.904;2024-01-11T11:08:47;101556.16;;;3.73;65.06
11523;BME280;70090;43.208;27.904;2024-01-11T11:11:17;101548.28;;;3.71;66.00
11523;BME280;70090;43.208;27.904;2024-01-11T11:13:46;101547.66;;;3.88;65.44
11523;BME280;70090;43.208;27.904;2024-01-11T11:16:16;101537.59;;;3.88;64.46
11523;BME280;70090;43.208;27.904;2024-01-11T11:18:43;101525.72;;;3.71;64.62
11523;BME280;70090;43.208;27.904;2024-01-11T11:21:10;101522.75;;;3.45;66.04
11523;BME280;70090;43.208;27.904;2024-01-11T11:23:38;101526.56;;;3.31;67.04
11523;BME280;70090;43.208;27.904;2024-01-11T11:26:06;101510.25;;;3.31;66.98
11523;BME280;70090;43.208;27.904;2024-01-11T11:28:34;101513.88;;;3.40;67.56
11523;BME280;70090;43.208;27.904;2024-01-11T11:31:02;101512.44;;;3.56;66.52
11523;BME280;70090;43.208;27.904;2024-01-11T11:33:31;101491.66;;;3.73;66.08
11523;BME280;70090;43.208;27.904;2024-01-11T11:35:59;101487.41;;;3.81;66.97
11523;BME280;70090;43.208;27.904;2024-01-11T11:38:27;101489.19;;;3.85;66.37
11523;BME280;70090;43.208;27.904;2024-01-11T11:40:56;101498.00;;;3.69;66.40
11523;BME280;70090;43.208;27.904;2024-01-11T11:43:26;101482.41;;;3.61;67.41
11523;BME280;70090;43.208;27.904;2024-01-11T11:45:54;101483.50;;;3.60;68.76
11523;BME280;70090;43.208;27.904;2024-01-11T11:48:53;101475.66;;;3.58;69.60
11523;BME280;70090;43.208;27.904;2024-01-11T11:51:20;101477.66;;;3.66;69.13
11523;BME280;70090;43.208;27.904;2024-01-11T11:53:48;101467.16;;;3.73;69.93
11523;BME280;70090;43.208;27.904;2024-01-11T11:56:17;101457.69;;;3.93;69.58
11523;BME280;70090;43.208;27.904;2024-01-11T11:58:44;101452.31;;;4.23;67.95
11523;BME280;70090;43.208;27.904;2024-01-11T12:01:13;101448.06;;;4.61;67.63
11523;BME280;70090;43.208;27.904;2024-01-11T12:03:41;101438.38;;;4.85;67.29
11523;BME280;70090;43.208;27.904;2024-01-11T12:06:10;101436.34;;;5.08;65.85
11523;BME280;70090;43.208;27.904;2024-01-11T12:08:37;101440.09;;;5.20;66.08
11523;BME280;70090;43.208;27.904;2024-01-11T12:11:05;101434.84;;;4.93;65.33
11523;BME280;70090;43.208;27.904;2024-01-11T12:13:33;101438.47;;;4.72;66.62
11523;BME280;70090;43.208;27.904;2024-01-11T12:16:01;101436.59;;;4.51;66.84
11523;BME280;70090;43.208;27.904;2024-01-11T12:18:28;101434.78;;;4.38;66.97
11523;BME280;70090;43.208;27.904;2024-01-11T12:20:56;101439.63;;;4.19;67.51
11523;BME280;70090;43.208;27.904;2024-01-11T12:23:24;101419.81;;;4.05;67.38
11523;BME280;70090;43.208;27.904;2024-01-11T12:25:51;101425.94;;;4.10;69.43
11523;BME280;70090;43.208;27.904;2024-01-11T12:28:19;101422.16;;;4.20;69.22
11523;BME280;70090;43.208;27.904;2024-01-11T12:30:46;101403.81;;;4.34;68.12
11523;BME280;70090;43.208;27.904;2024-01-11T12:33:13;101402.91;;;4.47;65.95
11523;BME280;70090;43.208;27.904;2024-01-11T12:35:40;101406.50;;;4.56;64.90
11523;BME280;70090;43.208;27.904;2024-01-11T12:38:08;101401.63;;;4.75;63.54
11523;BME280;70090;43.208;27.904;2024-01-11T12:40:38;101399.56;;;4.88;64.15
11523;BME280;70090;43.208;27.904;2024-01-11T12:43:06;101402.50;;;5.09;62.25
11523;BME280;70090;43.208;27.904;2024-01-11T12:45:34;101394.13;;;5.05;61.91